sensor_id;sensor_type;location;lat;lon;timestamp;pressure;altitude;pressure_sealevel;temperature;humidity
21234;BME280;10774;42.178;26.578;2023-08-30T00:01:29;98912.69;;;23.87;74.10
21234;BME280;10774;42.178;26.578;2023-08-30T00:03:55;98922.81;;;23.93;74.15
21234;BME280;10774;42.178;26.578;2023-08-30T00:06:20;98915.66;;;23.79;74.40
21234;BME280;10774;42.178;26.578;2023-08-30T00:08:46;98915.22;;;23.82;73.96
21234;BME280;10774;42.178;26.578;2023-08-30T00:11:11;98907.44;;;23.98;73.33
21234;BME280;10774;42.178;26.578;2023-08-30T00:13:36;98914.63;;;24.06;72.21
21234;BME280;10774;42.178;26.578;2023-08-30T00:16:02;98905.63;;;23.51;71.46
21234;BME280;10774;42.178;26.578;2023-08-30T00:18:28;98907.88;;;23.21;74.53
21234;BME280;10774;42.178;26.578;2023-08-30T00:20:54;98909.03;;;23.60;72.43
21234;BME280;10774;42.178;26.578;2023-08-30T00:23:19;98917.75;;;23.77;71.94
21234;BME280;10774;42.178;26.578;2023-08-30T00:25:45;98919.47;;;23.91;70.54
21234;BME280;10774;42.178;26.578;2023-08-30T00:28:10;98919.25;;;23.86;70.57
21234;BME280;10774;42.178;26.578;2023-08-30T00:30:36;98921.88;;;23.53;73.61
21234;BME280;10774;42.178;26.578;2023-08-30T00:33:01;98918.03;;;23.34;75.35
21234;BME280;10774;42.178;26.578;2023-08-30T00:35:27;98914.56;;;23.05;76.39
21234;BME280;10774;42.178;26.578;2023-08-30T00:37:52;98916.91;;;22.80;78.88
21234;BME280;10774;42.178;26.578;2023-08-30T00:40:18;98913.84;;;22.62;80.66
21234;BME280;10774;42.178;26.578;2023-08-30T00:42:43;98907.94;;;22.93;79.86
21234;BME280;10774;42.178;26.578;2023-08-30T00:45:09;98915.78;;;23.03;78.78
21234;BME280;10774;42.178;26.578;2023-08-30T00:47:36;98898.72;;;22.94;79.22
21234;BME280;10774;42.178;26.578;2023-08-30T00:50:01;98902.34;;;23.08;79.02
21234;BME280;10774;42.178;26.578;2023-08-30T00:52:27;98893.25;;;23.01;78.70
21234;BME280;10774;42.178;26.578;2023-08-30T00:54:53;98910.38;;;23.16;78.31
21234;BME280;10774;42.178;26.578;2023-08-30T00:57:19;98912.09;;;23.23;77.58
21234;BME280;10774;42.178;26.578;2023-08-30T00:59:44;98903.97;;;22.95;77.43
21234;BME280;10774;42.178;26.578;2023-08-30T01:02:10;98913.81;;;22.55;81.28
21234;BME280;10774;42.178;26.578;2023-08-30T01:04:35;98910.63;;;22.24;82.72
21234;BME280;10774;42.178;26.578;2023-08-30T01:07:00;98919.91;;;21.80;87.91
21234;BME280;10774;42.178;26.578;2023-08-30T01:09:26;98928.97;;;22.08;87.04
21234;BME280;10774;42.178;26.578;2023-08-30T01:12:04;98923.66;;;22.00;86.03
21234;BME280;10774;42.178;26.578;2023-08-30T01:14:45;98931.84;;;21.57;90.55
21234;BME280;10774;42.178;26.578;2023-08-30T01:17:16;98922.94;;;21.49;91.49
21234;BME280;10774;42.178;26.578;2023-08-30T01:19:57;98925.97;;;22.03;88.75
21234;BME280;10774;42.178;26.578;2023-08-30T01:25:37;98937.38;;;22.56;83.50
21234;BME280;10774;42.178;26.578;2023-08-30T01:28:08;98929.06;;;22.71;81.28
21234;BME280;10774;42.178;26.578;2023-08-30T01:30:37;98922.22;;;22.88;80.22
21234;BME280;10774;42.178;26.578;2023-08-30T01:33:05;98926.09;;;22.94;79.32
21234;BME280;10774;42.178;26.578;2023-08-30T01:35:33;98924.97;;;22.88;79.24
21234;BME280;10774;42.178;26.578;2023-08-30T01:38:03;98925.22;;;22.65;80.24
21234;BME280;10774;42.178;26.578;2023-08-30T01:40:33;98928.81;;;22.94;79.33
21234;BME280;10774;42.178;26.578;2023-08-30T01:43:01;98919.03;;;22.85;78.77
21234;BME280;10774;42.178;26.578;2023-08-30T01:45:27;98919.03;;;22.85;77.51
21234;BME280;10774;42.178;26.578;2023-08-30T01:47:54;98911.84;;;22.77;76.95
21234;BME280;10774;42.178;26.578;2023-08-30T01:50:21;98914.38;;;22.79;77.62
21234;BME280;10774;42.178;26.578;2023-08-30T01:52:47;98908.50;;;22.82;77.72
21234;BME280;10774;42.178;26.578;2023-08-30T01:55:14;98925.03;;;22.67;79.17
21234;BME280;10774;42.178;26.578;2023-08-30T01:57:39;98918.94;;;22.71;79.07
21234;BME280;10774;42.178;26.578;2023-08-30T02:00:05;98920.50;;;22.81;77.46
21234;BME280;10774;42.178;26.578;2023-08-30T02:02:31;98925.34;;;22.85;76.60
21234;BME280;10774;42.178;26.578;2023-08-30T02:04:56;98924.38;;;22.93;75.47
21234;BME280;10774;42.178;26.578;2023-08-30T02:07:43;98915.25;;;22.86;75.67
21234;BME280;10774;42.178;26.578;2023-08-30T02:10:18;98919.09;;;22.91;75.60
21234;BME280;10774;42.178;26.578;2023-08-30T02:15:13;98893.38;;;22.86;75.21
21234;BME280;10774;42.178;26.578;2023-08-30T02:17:39;98909.00;;;22.92;75.08
21234;BME280;10774;42.178;26.578;2023-08-30T02:20:06;98921.25;;;23.03;74.70
21234;BME280;10774;42.178;26.578;2023-08-30T02:24:58;98913.66;;;22.98;74.23
21234;BME280;10774;42.178;26.578;2023-08-30T02:27:24;98910.91;;;22.98;74.10
21234;BME280;10774;42.178;26.578;2023-08-30T02:29:49;98906.25;;;22.92;74.14
21234;BME280;10774;42.178;26.578;2023-08-30T02:32:15;98901.44;;;22.94;73.74
21234;BME280;10774;42.178;26.578;2023-08-30T02:34:46;98912.78;;;22.91;73.53
21234;BME280;10774;42.178;26.578;2023-08-30T02:37:11;98906.53;;;23.04;73.19
21234;BME280;10774;42.178;26.578;2023-08-30T02:39:36;98904.00;;;23.02;73.38
21234;BME280;10774;42.178;26.578;2023-08-30T02:42:02;98914.75;;;22.69;76.42
21234;BME280;10774;42.178;26.578;2023-08-30T02:44:27;98912.81;;;22.35;79.89
21234;BME280;10774;42.178;26.578;2023-08-30T02:46:53;98919.63;;;22.17;80.87
21234;BME280;10774;42.178;26.578;2023-08-30T02:49:18;98925.16;;;22.03;81.34
21234;BME280;10774;42.178;26.578;2023-08-30T02:51:44;98923.72;;;21.85;82.38
21234;BME280;10774;42.178;26.578;2023-08-30T02:54:09;98918.06;;;21.65;86.51
21234;BME280;10774;42.178;26.578;2023-08-30T02:56:37;98921.56;;;21.81;87.48
21234;BME280;10774;42.178;26.578;2023-08-30T02:59:03;98914.94;;;21.90;87.84
21234;BME280;10774;42.178;26.578;2023-08-30T03:01:28;98911.31;;;22.04;87.91
21234;BME280;10774;42.178;26.578;2023-08-30T03:03:54;98914.03;;;22.04;89.06
21234;BME280;10774;42.178;26.578;2023-08-30T03:06:19;98906.22;;;22.01;89.10
21234;BME280;10774;42.178;26.578;2023-08-30T03:08:45;98912.22;;;22.11;89.85
21234;BME280;10774;42.178;26.578;2023-08-30T03:11:13;98919.38;;;21.70;92.02
21234;BME280;10774;42.178;26.578;2023-08-30T03:13:39;98913.28;;;21.67;93.23
21234;BME280;10774;42.178;26.578;2023-08-30T03:16:14;98927.03;;;21.81;92.89
21234;BME280;10774;42.178;26.578;2023-08-30T03:18:40;98920.25;;;21.98;89.50
21234;BME280;10774;42.178;26.578;2023-08-30T03:21:06;98925.22;;;22.09;88.19
21234;BME280;10774;42.178;26.578;2023-08-30T03:23:31;98920.25;;;21.98;90.40
21234;BME280;10774;42.178;26.578;2023-08-30T03:25:58;98921.63;;;21.66;92.77
21234;BME280;10774;42.178;26.578;2023-08-30T03:28:23;98922.59;;;21.37;95.08
21234;BME280;10774;42.178;26.578;2023-08-30T03:30:49;98921.00;;;21.64;93.87
21234;BME280;10774;42.178;26.578;2023-08-30T03:33:14;98925.81;;;20.96;97.06
21234;BME280;10774;42.178;26.578;2023-08-30T03:35:40;98919.88;;;21.07;94.94
21234;BME280;10774;42.178;26.578;2023-08-30T03:38:05;98932.56;;;21.30;92.64
21234;BME280;10774;42.178;26.578;2023-08-30T03:40:31;98934.38;;;20.93;94.18
21234;BME280;10774;42.178;26.578;2023-08-30T03:42:56;98939.09;;;20.99;93.08
21234;BME280;10774;42.178;26.578;2023-08-30T03:45:22;98934.94;;;21.03;91.48
21234;BME280;10774;42.178;26.578;2023-08-30T03:47:47;98935.81;;;20.89;91.20
21234;BME280;10774;42.178;26.578;2023-08-30T03:50:12;98921.41;;;20.66;91.88
21234;BME280;10774;42.178;26.578;2023-08-30T03:52:38;98936.84;;;20.88;91.77
21234;BME280;10774;42.178;26.578;2023-08-30T03:55:04;98936.66;;;21.04;90.12
21234;BME280;10774;42.178;26.578;2023-08-30T03:57:29;98948.97;;;21.00;90.49
21234;BME280;10774;42.178;26.578;2023-08-30T03:59:55;98941.00;;;20.84;91.33
21234;BME280;10774;42.178;26.578;2023-08-30T04:02:20;98950.00;;;20.99;91.07
21234;BME280;10774;42.178;26.578;2023-08-30T04:04:49;98946.41;;;21.13;91.37
21234;BME280;10774;42.178;26.578;2023-08-30T04:07:15;98941.22;;;21.33;89.75
21234;BME280;10774;42.178;26.578;2023-08-30T04:09:40;98928.97;;;21.29;89.36
21234;BME280;10774;42.178;26.578;2023-08-30T04:12:06;98941.06;;;21.56;88.21
21234;BME280;10774;42.178;26.578;2023-08-30T04:14:31;98947.41;;;21.57;88.03
21234;BME280;10774;42.178;26.578;2023-08-30T04:16:57;98943.56;;;21.73;87.81
21234;BME280;10774;42.178;26.578;2023-08-30T04:19:22;98953.84;;;21.92;86.48
21234;BME280;10774;42.178;26.578;2023-08-30T04:21:48;98941.47;;;21.75;86.00
21234;BME280;10774;42.178;26.578;2023-08-30T04:24:16;98949.41;;;21.91;84.02
21234;BME280;10774;42.178;26.578;2023-08-30T04:26:42;98955.19;;;22.03;84.53
21234;BME280;10774;42.178;26.578;2023-08-30T04:29:08;98948.63;;;21.54;84.78
21234;BME280;10774;42.178;26.578;2023-08-30T04:31:34;98961.59;;;21.88;84.75
21234;BME280;10774;42.178;26.578;2023-08-30T04:33:59;98967.22;;;22.08;83.25
21234;BME280;10774;42.178;26.578;2023-08-30T04:36:24;98964.78;;;21.92;84.51
21234;BME280;10774;42.178;26.578;2023-08-30T04:38:50;98972.84;;;22.00;84.56
21234;BME280;10774;42.178;26.578;2023-08-30T04:41:15;98961.13;;;21.85;84.99
21234;BME280;10774;42.178;26.578;2023-08-30T04:43:40;98970.69;;;21.74;86.43
21234;BME280;10774;42.178;26.578;2023-08-30T04:46:06;98972.13;;;21.91;85.39
21234;BME280;10774;42.178;26.578;2023-08-30T04:48:31;98973.75;;;21.50;88.56
21234;BME280;10774;42.178;26.578;2023-08-30T04:51:04;98978.22;;;21.72;88.54
21234;BME280;10774;42.178;26.578;2023-08-30T04:53:30;98970.66;;;22.10;84.44
21234;BME280;10774;42.178;26.578;2023-08-30T04:55:55;98982.91;;;21.42;87.92
21234;BME280;10774;42.178;26.578;2023-08-30T04:58:21;98977.00;;;21.75;88.11
21234;BME280;10774;42.178;26.578;2023-08-30T05:00:46;98988.75;;;21.39;91.21
21234;BME280;10774;42.178;26.578;2023-08-30T05:03:12;98985.06;;;20.87;96.55
21234;BME280;10774;42.178;26.578;2023-08-30T05:05:37;98976.41;;;21.13;95.18
21234;BME280;10774;42.178;26.578;2023-08-30T05:08:03;98981.59;;;21.53;91.57
21234;BME280;10774;42.178;26.578;2023-08-30T05:10:29;98972.63;;;21.80;89.53
21234;BME280;10774;42.178;26.578;2023-08-30T05:12:55;98986.50;;;22.00;88.57
21234;BME280;10774;42.178;26.578;2023-08-30T05:15:20;98976.13;;;22.10;88.86
21234;BME280;10774;42.178;26.578;2023-08-30T05:17:46;98975.50;;;21.36;94.76
21234;BME280;10774;42.178;26.578;2023-08-30T05:20:11;98987.44;;;21.05;100.00
21234;BME280;10774;42.178;26.578;2023-08-30T05:22:37;98990.34;;;21.04;100.00
21234;BME280;10774;42.178;26.578;2023-08-30T05:25:02;98991.19;;;20.75;100.00
21234;BME280;10774;42.178;26.578;2023-08-30T05:27:28;98996.47;;;21.06;100.00
21234;BME280;10774;42.178;26.578;2023-08-30T05:29:53;98996.34;;;21.58;97.21
21234;BME280;10774;42.178;26.578;2023-08-30T05:32:21;99002.13;;;22.06;94.37
21234;BME280;10774;42.178;26.578;2023-08-30T05:34:47;98998.84;;;22.11;92.75
21234;BME280;10774;42.178;26.578;2023-08-30T05:37:12;98996.13;;;21.96;95.62
21234;BME280;10774;42.178;26.578;2023-08-30T05:39:38;98993.09;;;22.06;95.84
21234;BME280;10774;42.178;26.578;2023-08-30T05:42:03;98977.38;;;22.57;91.42
21234;BME280;10774;42.178;26.578;2023-08-30T05:44:29;98997.59;;;22.13;93.10
21234;BME280;10774;42.178;26.578;2023-08-30T05:46:54;98984.66;;;22.22;93.03
21234;BME280;10774;42.178;26.578;2023-08-30T05:49:19;98979.63;;;22.82;89.76
21234;BME280;10774;42.178;26.578;2023-08-30T05:51:45;98969.56;;;23.17;85.82
21234;BME280;10774;42.178;26.578;2023-08-30T05:54:10;98977.63;;;23.32;83.50
21234;BME280;10774;42.178;26.578;2023-08-30T05:56:36;98973.22;;;23.85;80.91
21234;BME280;10774;42.178;26.578;2023-08-30T05:59:01;98974.31;;;23.43;81.75
21234;BME280;10774;42.178;26.578;2023-08-30T06:01:27;98969.28;;;23.53;81.25
21234;BME280;10774;42.178;26.578;2023-08-30T06:03:52;98974.66;;;23.68;80.48
21234;BME280;10774;42.178;26.578;2023-08-30T06:06:18;98983.84;;;23.60;81.66
21234;BME280;10774;42.178;26.578;2023-08-30T06:08:43;98981.31;;;23.59;80.02
21234;BME280;10774;42.178;26.578;2023-08-30T06:11:09;98984.81;;;23.87;79.67
21234;BME280;10774;42.178;26.578;2023-08-30T06:13:34;98984.91;;;24.47;76.15
21234;BME280;10774;42.178;26.578;2023-08-30T06:16:00;98991.22;;;24.67;74.11
21234;BME280;10774;42.178;26.578;2023-08-30T06:18:29;98985.72;;;24.81;74.04
21234;BME280;10774;42.178;26.578;2023-08-30T06:20:55;98989.06;;;25.02;72.00
21234;BME280;10774;42.178;26.578;2023-08-30T06:23:20;98987.41;;;24.95;72.85
21234;BME280;10774;42.178;26.578;2023-08-30T06:25:53;98991.59;;;25.17;71.58
21234;BME280;10774;42.178;26.578;2023-08-30T06:28:19;98983.91;;;25.39;71.01
21234;BME280;10774;42.178;26.578;2023-08-30T06:30:44;98990.97;;;25.67;69.26
21234;BME280;10774;42.178;26.578;2023-08-30T06:33:10;98989.50;;;25.06;72.79
21234;BME280;10774;42.178;26.578;2023-08-30T06:35:38;98997.22;;;25.36;72.08
21234;BME280;10774;42.178;26.578;2023-08-30T06:38:05;98992.75;;;25.48;71.42
21234;BME280;10774;42.178;26.578;2023-08-30T06:40:30;99002.38;;;25.70;70.98
21234;BME280;10774;42.178;26.578;2023-08-30T06:42:56;98985.34;;;25.93;69.28
21234;BME280;10774;42.178;26.578;2023-08-30T06:45:22;98995.00;;;26.09;69.14
21234;BME280;10774;42.178;26.578;2023-08-30T06:47:48;98995.81;;;26.16;69.15
21234;BME280;10774;42.178;26.578;2023-08-30T06:50:14;98991.31;;;25.84;70.73
21234;BME280;10774;42.178;26.578;2023-08-30T06:52:40;98993.53;;;25.68;71.37
21234;BME280;10774;42.178;26.578;2023-08-30T06:55:06;98999.09;;;26.00;70.01
21234;BME280;10774;42.178;26.578;2023-08-30T06:57:31;98998.22;;;25.54;71.97
21234;BME280;10774;42.178;26.578;2023-08-30T06:59:57;99004.13;;;26.03;70.46
21234;BME280;10774;42.178;26.578;2023-08-30T07:02:24;99007.00;;;26.53;68.08
21234;BME280;10774;42.178;26.578;2023-08-30T07:04:50;99005.69;;;26.99;66.43
21234;BME280;10774;42.178;26.578;2023-08-30T07:07:16;99013.72;;;27.07;65.33
21234;BME280;10774;42.178;26.578;2023-08-30T07:09:41;99008.28;;;26.94;65.59
21234;BME280;10774;42.178;26.578;2023-08-30T07:12:07;99017.72;;;27.29;64.41
21234;BME280;10774;42.178;26.578;2023-08-30T07:14:32;98989.22;;;27.35;64.52
21234;BME280;10774;42.178;26.578;2023-08-30T07:16:58;99014.66;;;27.38;64.36
21234;BME280;10774;42.178;26.578;2023-08-30T07:19:24;98993.16;;;27.28;64.80
21234;BME280;10774;42.178;26.578;2023-08-30T07:21:50;99014.50;;;27.51;64.07
21234;BME280;10774;42.178;26.578;2023-08-30T07:24:15;98999.47;;;27.47;64.14
21234;BME280;10774;42.178;26.578;2023-08-30T07:26:41;99005.69;;;27.79;63.16
21234;BME280;10774;42.178;26.578;2023-08-30T07:29:06;99002.16;;;27.72;62.76
21234;BME280;10774;42.178;26.578;2023-08-30T07:31:32;99008.41;;;27.97;62.69
21234;BME280;10774;42.178;26.578;2023-08-30T07:33:58;99004.28;;;28.18;61.29
21234;BME280;10774;42.178;26.578;2023-08-30T07:36:25;98999.63;;;28.30;61.15
21234;BME280;10774;42.178;26.578;2023-08-30T07:38:51;99005.84;;;28.56;60.16
21234;BME280;10774;42.178;26.578;2023-08-30T07:41:16;98997.94;;;28.71;60.17
21234;BME280;10774;42.178;26.578;2023-08-30T07:43:41;98999.47;;;28.79;60.29
21234;BME280;10774;42.178;26.578;2023-08-30T07:46:07;98999.25;;;28.80;60.14
21234;BME280;10774;42.178;26.578;2023-08-30T07:48:32;98994.38;;;29.06;59.48
21234;BME280;10774;42.178;26.578;2023-08-30T07:50:58;99001.91;;;29.10;60.21
21234;BME280;10774;42.178;26.578;2023-08-30T07:53:23;98995.66;;;29.15;58.79
21234;BME280;10774;42.178;26.578;2023-08-30T07:55:49;99005.78;;;28.32;61.82
21234;BME280;10774;42.178;26.578;2023-08-30T07:58:15;98998.56;;;28.97;60.63
21234;BME280;10774;42.178;26.578;2023-08-30T08:00:41;98999.09;;;29.46;59.61
21234;BME280;10774;42.178;26.578;2023-08-30T08:03:06;98986.81;;;29.65;58.52
21234;BME280;10774;42.178;26.578;2023-08-30T08:05:32;98991.44;;;29.36;58.70
21234;BME280;10774;42.178;26.578;2023-08-30T08:07:59;98987.13;;;28.93;59.89
21234;BME280;10774;42.178;26.578;2023-08-30T08:10:26;98984.97;;;28.30;62.65
21234;BME280;10774;42.178;26.578;2023-08-30T08:12:52;98999.91;;;29.06;60.85
21234;BME280;10774;42.178;26.578;2023-08-30T08:15:17;98992.97;;;29.55;59.51
21234;BME280;10774;42.178;26.578;2023-08-30T08:17:42;98983.84;;;29.83;57.85
21234;BME280;10774;42.178;26.578;2023-08-30T08:20:08;98992.06;;;30.07;57.78
21234;BME280;10774;42.178;26.578;2023-08-30T08:22:34;98993.09;;;29.89;58.05
21234;BME280;10774;42.178;26.578;2023-08-30T08:24:59;98988.91;;;29.86;57.31
21234;BME280;10774;42.178;26.578;2023-08-30T08:27:25;98979.88;;;29.91;58.57
21234;BME280;10774;42.178;26.578;2023-08-30T08:29:50;98981.22;;;30.05;57.72
21234;BME280;10774;42.178;26.578;2023-08-30T08:32:16;98993.81;;;30.41;56.56
21234;BME280;10774;42.178;26.578;2023-08-30T08:34:41;98995.00;;;30.45;55.89
21234;BME280;10774;42.178;26.578;2023-08-30T08:37:07;98984.69;;;30.41;55.23
21234;BME280;10774;42.178;26.578;2023-08-30T08:39:32;98989.94;;;30.71;54.61
21234;BME280;10774;42.178;26.578;2023-08-30T08:41:59;98992.56;;;30.32;55.74
21234;BME280;10774;42.178;26.578;2023-08-30T08:44:26;98995.25;;;30.44;55.78
21234;BME280;10774;42.178;26.578;2023-08-30T08:46:52;98991.56;;;29.81;57.10
21234;BME280;10774;42.178;26.578;2023-08-30T08:49:18;98984.91;;;29.94;57.07
21234;BME280;10774;42.178;26.578;2023-08-30T08:51:44;98987.88;;;30.33;56.25
21234;BME280;10774;42.178;26.578;2023-08-30T08:54:11;98972.00;;;30.28;55.71
21234;BME280;10774;42.178;26.578;2023-08-30T08:56:37;98984.19;;;30.61;54.74
21234;BME280;10774;42.178;26.578;2023-08-30T08:59:04;98985.22;;;30.71;54.75
21234;BME280;10774;42.178;26.578;2023-08-30T09:01:33;98964.22;;;30.92;53.54
21234;BME280;10774;42.178;26.578;2023-08-30T09:04:03;98979.41;;;30.90;53.86
21234;BME280;10774;42.178;26.578;2023-08-30T09:06:29;98983.38;;;30.77;53.58
21234;BME280;10774;42.178;26.578;2023-08-30T09:08:54;98982.16;;;31.07;53.15
21234;BME280;10774;42.178;26.578;2023-08-30T09:11:20;98971.88;;;31.24;53.64
21234;BME280;10774;42.178;26.578;2023-08-30T09:13:45;98970.72;;;31.64;52.24
21234;BME280;10774;42.178;26.578;2023-08-30T09:16:12;98965.97;;;31.81;51.03
21234;BME280;10774;42.178;26.578;2023-08-30T09:18:39;98960.78;;;31.68;50.44
21234;BME280;10774;42.178;26.578;2023-08-30T09:21:13;98944.50;;;31.98;50.76
21234;BME280;10774;42.178;26.578;2023-08-30T09:23:39;98944.72;;;32.19;50.00
21234;BME280;10774;42.178;26.578;2023-08-30T09:26:04;98942.53;;;32.26;49.33
21234;BME280;10774;42.178;26.578;2023-08-30T09:28:30;98952.22;;;32.50;51.33
21234;BME280;10774;42.178;26.578;2023-08-30T09:30:58;98940.78;;;32.84;49.07
21234;BME280;10774;42.178;26.578;2023-08-30T09:33:32;98948.16;;;33.00;47.85
21234;BME280;10774;42.178;26.578;2023-08-30T09:35:59;98934.59;;;32.72;50.07
21234;BME280;10774;42.178;26.578;2023-08-30T09:38:24;98934.59;;;32.72;48.47
21234;BME280;10774;42.178;26.578;2023-08-30T09:40:50;98935.34;;;32.94;48.96
21234;BME280;10774;42.178;26.578;2023-08-30T09:43:19;98924.22;;;32.94;48.39
21234;BME280;10774;42.178;26.578;2023-08-30T09:45:44;98938.44;;;33.03;48.17
21234;BME280;10774;42.178;26.578;2023-08-30T09:48:10;98934.09;;;33.17;47.92
21234;BME280;10774;42.178;26.578;2023-08-30T09:50:36;98929.75;;;33.42;48.61
21234;BME280;10774;42.178;26.578;2023-08-30T09:53:08;98928.16;;;33.61;47.52
21234;BME280;10774;42.178;26.578;2023-08-30T09:55:35;98934.94;;;33.96;47.54
21234;BME280;10774;42.178;26.578;2023-08-30T09:58:02;98918.53;;;33.99;47.20
21234;BME280;10774;42.178;26.578;2023-08-30T10:00:30;98932.50;;;34.35;46.72
21234;BME280;10774;42.178;26.578;2023-08-30T10:02:58;98921.66;;;34.49;45.10
21234;BME280;10774;42.178;26.578;2023-08-30T10:05:23;98921.91;;;34.42;45.42
21234;BME280;10774;42.178;26.578;2023-08-30T10:07:51;98933.88;;;34.02;46.87
21234;BME280;10774;42.178;26.578;2023-08-30T10:10:18;98938.59;;;34.17;45.58
21234;BME280;10774;42.178;26.578;2023-08-30T10:12:46;98936.38;;;34.19;46.29
21234;BME280;10774;42.178;26.578;2023-08-30T10:15:11;98935.16;;;33.79;46.66
21234;BME280;10774;42.178;26.578;2023-08-30T10:17:38;98925.44;;;33.76;46.86
21234;BME280;10774;42.178;26.578;2023-08-30T10:20:07;98921.06;;;34.11;45.79
21234;BME280;10774;42.178;26.578;2023-08-30T10:22:35;98923.00;;;34.26;45.33
21234;BME280;10774;42.178;26.578;2023-08-30T10:25:08;98915.78;;;34.35;44.49
21234;BME280;10774;42.178;26.578;2023-08-30T10:27:37;98921.84;;;33.91;45.15
21234;BME280;10774;42.178;26.578;2023-08-30T10:30:05;98905.19;;;34.06;44.83
21234;BME280;10774;42.178;26.578;2023-08-30T10:32:32;98909.63;;;33.97;44.70
21234;BME280;10774;42.178;26.578;2023-08-30T10:35:01;98904.63;;;34.25;45.43
21234;BME280;10774;42.178;26.578;2023-08-30T10:37:29;98904.91;;;34.69;44.56
21234;BME280;10774;42.178;26.578;2023-08-30T10:39:59;98904.06;;;34.74;45.04
21234;BME280;10774;42.178;26.578;2023-08-30T10:42:28;98906.25;;;35.07;44.10
21234;BME280;10774;42.178;26.578;2023-08-30T10:44:59;98896.16;;;35.17;42.55
21234;BME280;10774;42.178;26.578;2023-08-30T10:47:28;98891.28;;;34.47;43.39
21234;BME280;10774;42.178;26.578;2023-08-30T10:49:57;98884.72;;;33.45;45.01
21234;BME280;10774;42.178;26.578;2023-08-30T10:52:24;98885.66;;;33.86;44.42
21234;BME280;10774;42.178;26.578;2023-08-30T10:54:50;98895.72;;;34.13;44.02
21234;BME280;10774;42.178;26.578;2023-08-30T10:57:24;98891.53;;;34.20;43.83
21234;BME280;10774;42.178;26.578;2023-08-30T11:02:44;98882.53;;;35.10;41.67
21234;BME280;10774;42.178;26.578;2023-08-30T11:05:10;98881.72;;;34.94;41.52
21234;BME280;10774;42.178;26.578;2023-08-30T11:07:36;98877.78;;;35.10;39.41
21234;BME280;10774;42.178;26.578;2023-08-30T11:10:04;98868.81;;;35.19;37.70
21234;BME280;10774;42.178;26.578;2023-08-30T11:12:30;98877.28;;;34.83;38.50
21234;BME280;10774;42.178;26.578;2023-08-30T11:14:56;98872.06;;;35.41;37.04
21234;BME280;10774;42.178;26.578;2023-08-30T11:17:22;98863.75;;;35.26;36.02
21234;BME280;10774;42.178;26.578;2023-08-30T11:19:51;98864.88;;;35.25;36.86
21234;BME280;10774;42.178;26.578;2023-08-30T11:22:22;98863.00;;;35.65;36.45
21234;BME280;10774;42.178;26.578;2023-08-30T11:24:48;98842.81;;;35.33;35.88
21234;BME280;10774;42.178;26.578;2023-08-30T11:27:17;98851.09;;;35.49;34.91
21234;BME280;10774;42.178;26.578;2023-08-30T11:29:42;98848.88;;;35.51;35.01
21234;BME280;10774;42.178;26.578;2023-08-30T11:32:08;98851.09;;;35.49;35.45
21234;BME280;10774;42.178;26.578;2023-08-30T11:34:33;98845.09;;;35.76;36.61
21234;BME280;10774;42.178;26.578;2023-08-30T11:36:59;98846.28;;;36.04;36.68
21234;BME280;10774;42.178;26.578;2023-08-30T11:39:27;98832.09;;;36.29;37.19
21234;BME280;10774;42.178;26.578;2023-08-30T11:41:53;98830.59;;;36.42;36.00
21234;BME280;10774;42.178;26.578;2023-08-30T11:44:19;98826.97;;;36.71;36.19
21234;BME280;10774;42.178;26.578;2023-08-30T11:46:44;98830.28;;;36.73;34.03
21234;BME280;10774;42.178;26.578;2023-08-30T11:49:10;98831.75;;;36.36;34.67
21234;BME280;10774;42.178;26.578;2023-08-30T11:51:36;98814.56;;;36.24;34.93
21234;BME280;10774;42.178;26.578;2023-08-30T11:54:02;98813.91;;;36.03;35.92
21234;BME280;10774;42.178;26.578;2023-08-30T11:56:29;98824.69;;;36.14;35.87
21234;BME280;10774;42.178;26.578;2023-08-30T11:58:55;98815.25;;;36.05;36.17
21234;BME280;10774;42.178;26.578;2023-08-30T12:01:20;98799.97;;;36.27;35.66
21234;BME280;10774;42.178;26.578;2023-08-30T12:03:46;98818.84;;;36.45;35.72
21234;BME280;10774;42.178;26.578;2023-08-30T12:06:16;98824.91;;;36.52;34.98
21234;BME280;10774;42.178;26.578;2023-08-30T12:08:42;98809.09;;;36.37;34.83
21234;BME280;10774;42.178;26.578;2023-08-30T12:11:18;98808.91;;;36.29;34.79
21234;BME280;10774;42.178;26.578;2023-08-30T12:13:44;98806.47;;;36.51;34.34
21234;BME280;10774;42.178;26.578;2023-08-30T12:16:15;98800.41;;;36.44;34.78
21234;BME280;10774;42.178;26.578;2023-08-30T12:18:41;98820.75;;;36.74;34.55
21234;BME280;10774;42.178;26.578;2023-08-30T12:21:07;98812.22;;;36.89;33.13
21234;BME280;10774;42.178;26.578;2023-08-30T12:23:33;98810.53;;;36.88;32.91
21234;BME280;10774;42.178;26.578;2023-08-30T12:26:10;98814.94;;;36.94;32.15
21234;BME280;10774;42.178;26.578;2023-08-30T12:28:38;98814.84;;;36.51;32.27
21234;BME280;10774;42.178;26.578;2023-08-30T12:31:04;98808.59;;;36.59;32.27
21234;BME280;10774;42.178;26.578;2023-08-30T12:33:30;98810.28;;;36.60;32.05
21234;BME280;10774;42.178;26.578;2023-08-30T12:35:57;98811.09;;;36.85;32.16
21234;BME280;10774;42.178;26.578;2023-08-30T12:38:23;98810.88;;;37.05;30.53
21234;BME280;10774;42.178;26.578;2023-08-30T12:40:53;98808.53;;;36.94;30.88
21234;BME280;10774;42.178;26.578;2023-08-30T12:43:20;98810.06;;;37.05;30.72
21234;BME280;10774;42.178;26.578;2023-08-30T12:45:47;98796.38;;;37.03;31.31
21234;BME280;10774;42.178;26.578;2023-08-30T12:48:14;98796.56;;;37.31;30.65
21234;BME280;10774;42.178;26.578;2023-08-30T12:50:41;98803.28;;;37.30;30.78
21234;BME280;10774;42.178;26.578;2023-08-30T12:53:08;98791.91;;;37.45;30.39
21234;BME280;10774;42.178;26.578;2023-08-30T12:55:34;98796.53;;;37.55;29.86
21234;BME280;10774;42.178;26.578;2023-08-30T12:58:00;98796.41;;;37.79;28.49